Time;durP1;ratioP1;P1;durP2;ratioP2;P2;SDS_P1;SDS_P2;PMS_P1;PMS_P2;Temp;Humidity;BMP_temperature;BMP_pressure;BME280_temperature;BME280_humidity;BME280_pressure;Samples;Min_cycle;Max_cycle;Signal;HPM_P1;HPM_P2
2023/12/24 00:01:07;;;;;;;25.52;5.50;;;12.10;99.90;;;;;;5150252;27;20011;-47
2023/12/24 00:03:36;;;;;;;38.60;5.97;;;12.10;99.90;;;;;;5150417;27;20165;-47
2023/12/24 00:06:02;;;;;;;28.45;5.93;;;12.20;99.90;;;;;;5132382;27;20251;-48
2023/12/24 00:08:31;;;;;;;31.25;5.93;;;12.20;99.90;;;;;;5150105;27;20043;-47
2023/12/24 00:10:57;;;;;;;34.03;5.40;;;12.10;99.90;;;;;;5150497;27;20035;-47
2023/12/24 00:13:24;;;;;;;17.70;5.30;;;12.10;99.90;;;;;;5149811;27;20051;-48
2023/12/24 00:15:50;;;;;;;25.98;5.40;;;12.20;99.90;;;;;;5150160;27;20143;-47
2023/12/24 00:18:16;;;;;;;30.15;6.32;;;12.20;99.90;;;;;;5150102;27;20098;-46
2023/12/24 00:20:41;;;;;;;28.73;4.50;;;12.20;99.90;;;;;;5150237;27;20019;-48
2023/12/24 00:23:08;;;;;;;31.75;5.60;;;12.20;99.90;;;;;;5150325;27;20019;-48
2023/12/24 00:25:40;;;;;;;33.58;5.55;;;12.20;99.90;;;;;;5149561;27;20027;-47
2023/12/24 00:28:06;;;;;;;20.85;4.32;;;12.20;99.90;;;;;;5149421;27;20281;-47
2023/12/24 00:30:32;;;;;;;28.35;5.78;;;12.20;99.90;;;;;;5149883;27;20023;-47
2023/12/24 00:32:58;;;;;;;28.60;5.03;;;12.20;99.90;;;;;;5149544;27;20090;-47
2023/12/24 00:35:24;;;;;;;21.88;4.75;;;12.20;99.90;;;;;;5149061;27;20027;-47
2023/12/24 00:37:51;;;;;;;24.90;6.85;;;12.20;99.90;;;;;;5149727;27;20027;-48
2023/12/24 00:40:17;;;;;;;35.35;6.07;;;12.20;99.90;;;;;;5149835;27;20030;-48
2023/12/24 00:42:42;;;;;;;34.42;5.57;;;12.20;99.90;;;;;;5149814;27;20080;-47
2023/12/24 00:45:09;;;;;;;33.10;5.95;;;12.20;99.90;;;;;;5149177;27;20039;-47
2023/12/24 00:47:35;;;;;;;30.27;5.75;;;12.20;99.90;;;;;;5149330;27;20023;-50
2023/12/24 00:50:00;;;;;;;27.48;5.47;;;12.30;99.90;;;;;;5149548;27;20034;-50
2023/12/24 00:52:26;;;;;;;25.80;5.38;;;12.20;99.90;;;;;;5149495;27;20035;-50
2023/12/24 00:54:52;;;;;;;31.58;5.82;;;12.30;99.90;;;;;;5149603;27;20109;-50
2023/12/24 00:57:17;;;;;;;29.70;5.30;;;12.30;99.90;;;;;;5149181;27;20086;-50
2023/12/24 00:59:43;;;;;;;26.65;5.53;;;12.30;99.90;;;;;;5148066;27;20039;-50
2023/12/24 01:02:09;;;;;;;28.35;5.70;;;12.30;99.90;;;;;;5149349;27;20080;-50
2023/12/24 01:04:34;;;;;;;36.20;6.47;;;12.40;99.90;;;;;;5149277;27;20042;-50
2023/12/24 01:07:00;;;;;;;35.15;5.63;;;12.40;99.90;;;;;;5149108;27;20055;-50
2023/12/24 01:09:26;;;;;;;28.20;5.25;;;12.40;99.90;;;;;;5149013;27;20039;-50
2023/12/24 01:11:52;;;;;;;26.88;4.78;;;12.40;99.90;;;;;;5149050;27;20049;-50
2023/12/24 01:14:18;;;;;;;28.38;5.68;;;12.40;99.90;;;;;;5149180;27;20087;-50
2023/12/24 01:16:44;;;;;;;20.83;5.97;;;12.40;99.90;;;;;;5147777;27;20253;-50
2023/12/24 01:19:10;;;;;;;28.35;5.07;;;12.40;99.90;;;;;;5148736;27;20031;-50
2023/12/24 01:21:35;;;;;;;32.25;4.85;;;12.40;99.90;;;;;;5147945;27;20285;-50
2023/12/24 01:24:01;;;;;;;22.73;5.35;;;12.30;99.90;;;;;;5148774;27;20173;-48
2023/12/24 01:26:27;;;;;;;27.13;5.10;;;12.40;99.90;;;;;;5148819;27;20068;-50
2023/12/24 01:28:52;;;;;;;31.67;5.95;;;12.30;99.90;;;;;;5148736;27;20027;-50
2023/12/24 01:31:19;;;;;;;30.42;5.22;;;12.40;99.90;;;;;;5148536;27;20038;-50
2023/12/24 01:33:45;;;;;;;22.75;4.80;;;12.30;99.90;;;;;;5148622;27;20045;-50
2023/12/24 01:36:10;;;;;;;36.05;7.13;;;12.30;99.90;;;;;;5148807;27;20023;-50
2023/12/24 01:38:36;;;;;;;25.13;5.32;;;12.30;99.90;;;;;;5148671;27;20276;-47
2023/12/24 01:41:02;;;;;;;27.88;4.60;;;12.30;99.90;;;;;;5147503;27;20029;-50
2023/12/24 01:43:27;;;;;;;32.58;4.93;;;12.30;99.90;;;;;;5147947;27;20027;-49
2023/12/24 01:45:53;;;;;;;21.55;4.55;;;12.30;99.90;;;;;;5148537;27;20027;-50
2023/12/24 01:48:19;;;;;;;37.75;5.78;;;12.30;99.90;;;;;;5147212;27;20023;-50
2023/12/24 01:50:45;;;;;;;32.42;5.80;;;12.20;99.90;;;;;;5147345;27;20058;-50
2023/12/24 01:53:11;;;;;;;27.92;5.40;;;12.30;99.90;;;;;;5130187;27;20031;-50
2023/12/24 01:55:37;;;;;;;42.42;5.93;;;12.20;99.90;;;;;;5148124;27;20176;-49
2023/12/24 01:58:04;;;;;;;30.30;5.05;;;12.20;99.90;;;;;;5130178;27;20031;-46
2023/12/24 02:00:29;;;;;;;32.47;5.75;;;12.30;99.90;;;;;;5147040;27;20106;-50
2023/12/24 02:02:55;;;;;;;28.58;5.50;;;12.20;99.90;;;;;;5148067;27;20189;-49
2023/12/24 02:05:21;;;;;;;27.55;5.78;;;12.30;99.90;;;;;;5146849;27;20292;-50
2023/12/24 02:07:46;;;;;;;38.88;5.57;;;12.30;99.90;;;;;;5147730;27;20080;-49
2023/12/24 02:10:13;;;;;;;38.72;6.03;;;12.30;99.90;;;;;;5147062;27;20065;-50
2023/12/24 02:12:38;;;;;;;33.65;5.53;;;12.30;99.90;;;;;;5147997;27;20051;-50
2023/12/24 02:15:05;;;;;;;32.30;5.45;;;12.20;99.90;;;;;;5147804;27;20315;-50
2023/12/24 02:17:31;;;;;;;30.50;4.90;;;12.30;99.90;;;;;;5147843;27;20202;-50
2023/12/24 02:19:57;;;;;;;38.38;5.05;;;12.30;99.90;;;;;;5146835;27;20038;-50
2023/12/24 02:22:23;;;;;;;31.05;6.88;;;12.30;99.90;;;;;;5147749;27;20031;-50
2023/12/24 02:24:49;;;;;;;25.85;4.35;;;12.30;99.90;;;;;;5147252;27;20038;-50
2023/12/24 02:27:20;;;;;;;33.88;5.50;;;12.30;99.90;;;;;;5147741;27;20023;-50
2023/12/24 02:29:47;;;;;;;28.40;5.07;;;12.30;99.90;;;;;;5129765;27;20027;-50
2023/12/24 02:32:15;;;;;;;26.65;5.90;;;12.30;99.90;;;;;;5112599;27;20042;-50
2023/12/24 02:34:45;;;;;;;22.92;5.18;;;12.20;99.90;;;;;;5147558;27;20107;-50
2023/12/24 02:37:11;;;;;;;36.38;5.40;;;12.20;99.90;;;;;;5147242;27;20035;-49
2023/12/24 02:39:42;;;;;;;35.95;4.93;;;12.20;99.90;;;;;;5147270;27;20034;-50
2023/12/24 02:42:08;;;;;;;31.38;6.45;;;12.10;99.90;;;;;;5147494;27;20027;-50
2023/12/24 02:44:38;;;;;;;22.48;4.25;;;12.10;99.90;;;;;;5146245;27;20051;-50
2023/12/24 02:47:03;;;;;;;;;;;12.20;99.90;;;;;;5147649;27;20334;-47
2023/12/24 02:49:29;;;;;;;34.20;5.45;;;12.20;99.90;;;;;;5146271;27;19970;-47
2023/12/24 02:51:55;;;;;;;26.27;4.80;;;12.20;99.90;;;;;;5147178;27;20041;-47
2023/12/24 02:54:21;;;;;;;33.42;5.32;;;12.20;99.90;;;;;;5147268;27;20056;-50
2023/12/24 02:56:46;;;;;;;38.33;6.03;;;12.20;99.90;;;;;;5146798;27;20030;-50
2023/12/24 02:59:12;;;;;;;28.98;5.13;;;12.20;99.90;;;;;;5146905;27;20027;-50
2023/12/24 03:01:38;;;;;;;20.05;4.18;;;12.30;99.90;;;;;;5147182;27;20061;-48
2023/12/24 03:04:04;;;;;;;23.75;4.93;;;12.30;99.90;;;;;;5145996;27;20026;-46
2023/12/24 03:06:29;;;;;;;26.40;4.82;;;12.30;99.90;;;;;;5146549;27;20060;-49
2023/12/24 03:08:55;;;;;;;20.20;3.65;;;12.40;99.90;;;;;;5146776;27;20054;-47
2023/12/24 03:11:21;;;;;;;27.23;5.00;;;12.40;99.90;;;;;;5146962;27;20029;-50
2023/12/24 03:13:46;;;;;;;19.98;4.47;;;12.40;99.90;;;;;;5146913;27;20034;-50
2023/12/24 03:16:12;;;;;;;21.15;4.78;;;12.40;99.90;;;;;;5146954;27;20082;-50
2023/12/24 03:18:38;;;;;;;27.33;4.65;;;12.40;99.90;;;;;;5146810;27;20155;-49
2023/12/24 03:21:04;;;;;;;27.02;5.65;;;12.40;99.90;;;;;;5145364;27;20031;-48
2023/12/24 03:23:30;;;;;;;23.77;3.95;;;12.40;99.90;;;;;;5145423;27;20031;-50
2023/12/24 03:25:55;;;;;;;25.30;5.32;;;12.40;99.90;;;;;;5146716;27;20229;-50
2023/12/24 03:28:21;;;;;;;23.02;4.20;;;12.40;99.90;;;;;;5147256;28;20157;-49
2023/12/24 03:30:47;;;;;;;29.00;4.40;;;12.40;99.90;;;;;;5145437;28;20105;-47
2023/12/24 03:33:13;;;;;;;22.33;4.75;;;12.40;99.90;;;;;;5145577;28;20034;-50
2023/12/24 03:35:38;;;;;;;19.67;4.43;;;12.40;99.90;;;;;;5145611;28;20091;-47
2023/12/24 03:38:04;;;;;;;19.40;4.35;;;12.40;99.90;;;;;;5146212;28;20039;-50
2023/12/24 03:40:30;;;;;;;22.83;4.85;;;12.40;99.90;;;;;;5146635;28;20264;-50
2023/12/24 03:42:55;;;;;;;15.43;3.22;;;12.40;99.90;;;;;;5145510;28;20027;-50
2023/12/24 03:45:21;;;;;;;13.80;3.70;;;12.50;99.90;;;;;;5146282;28;20038;-49
2023/12/24 03:47:47;;;;;;;12.50;2.65;;;12.50;99.90;;;;;;5146496;28;20023;-50
2023/12/24 03:50:12;;;;;;;27.88;5.00;;;12.60;99.90;;;;;;5146582;28;20180;-50
2023/12/24 03:52:40;;;;;;;14.02;3.70;;;12.60;99.90;;;;;;5146023;28;20030;-50
2023/12/24 03:55:05;;;;;;;24.00;4.28;;;12.60;99.90;;;;;;5145366;28;20091;-50
2023/12/24 03:57:31;;;;;;;22.08;3.72;;;12.60;99.90;;;;;;5146356;28;20031;-49
2023/12/24 03:59:57;;;;;;;23.00;3.33;;;12.60;99.90;;;;;;5146385;28;20098;-47
2023/12/24 04:02:24;;;;;;;22.95;3.70;;;12.70;99.90;;;;;;5146407;28;20023;-48
2023/12/24 04:04:50;;;;;;;21.88;4.10;;;12.60;99.90;;;;;;5146239;28;20047;-47
2023/12/24 04:07:16;;;;;;;18.45;3.70;;;12.70;99.90;;;;;;5145670;28;20023;-48
2023/12/24 04:09:42;;;;;;;20.08;3.92;;;12.60;99.90;;;;;;5146187;28;20120;-47
2023/12/24 04:12:08;;;;;;;21.15;3.72;;;12.60;99.90;;;;;;5145364;28;20080;-47
2023/12/24 04:14:37;;;;;;;9.80;2.80;;;12.50;99.90;;;;;;5146334;28;20042;-50
2023/12/24 04:17:04;;;;;;;21.98;3.60;;;12.60;99.90;;;;;;5146270;28;20186;-50
2023/12/24 04:19:30;;;;;;;21.55;3.80;;;12.60;99.90;;;;;;5146116;28;20019;-50
2023/12/24 04:21:55;;;;;;;14.88;4.00;;;12.60;99.90;;;;;;5146271;28;20077;-50
2023/12/24 04:24:21;;;;;;;23.23;4.63;;;12.50;99.90;;;;;;5144915;28;20034;-50
2023/12/24 04:26:46;;;;;;;14.73;2.65;;;12.50;99.90;;;;;;5145859;28;20091;-50
2023/12/24 04:29:13;;;;;;;13.73;2.85;;;12.50;99.90;;;;;;5146125;28;20031;-49
2023/12/24 04:31:39;;;;;;;23.70;4.15;;;12.40;99.90;;;;;;5146028;28;20020;-47
2023/12/24 04:34:06;;;;;;;26.50;4.88;;;12.40;99.90;;;;;;5147327;27;20031;-50
2023/12/24 04:36:33;;;;;;;29.88;4.72;;;12.30;99.90;;;;;;5149892;27;20031;-50
2023/12/24 04:38:58;;;;;;;30.48;4.50;;;12.30;99.90;;;;;;5149988;27;20027;-47
2023/12/24 04:41:26;;;;;;;25.77;5.28;;;12.30;99.90;;;;;;5149999;27;20075;-49
2023/12/24 04:43:52;;;;;;;16.58;3.10;;;12.30;99.90;;;;;;5149574;27;20026;-50
2023/12/24 04:46:18;;;;;;;33.92;4.55;;;12.40;99.90;;;;;;5149758;27;20095;-50
2023/12/24 04:48:43;;;;;;;22.75;4.13;;;12.30;99.90;;;;;;5149727;27;20015;-50
2023/12/24 04:51:10;;;;;;;25.60;3.80;;;12.30;99.90;;;;;;5148622;27;20038;-50
2023/12/24 04:53:36;;;;;;;36.65;5.00;;;12.30;99.90;;;;;;5149536;27;20229;-50
2023/12/24 04:56:02;;;;;;;20.90;3.88;;;12.30;99.90;;;;;;5149137;27;20023;-50
2023/12/24 04:58:27;;;;;;;18.63;4.07;;;12.30;99.90;;;;;;5149452;27;20023;-50
2023/12/24 05:00:53;;;;;;;23.38;4.05;;;12.30;99.90;;;;;;5148298;27;20024;-50
2023/12/24 05:03:19;;;;;;;29.67;5.45;;;12.30;99.90;;;;;;5149185;27;20019;-50
2023/12/24 05:05:44;;;;;;;34.20;4.40;;;12.20;99.90;;;;;;5149115;27;20047;-48
2023/12/24 05:08:10;;;;;;;35.38;4.80;;;12.20;99.90;;;;;;5148973;27;20031;-49
2023/12/24 05:10:35;;;;;;;31.80;5.10;;;12.20;99.90;;;;;;5149363;27;20080;-47
2023/12/24 05:13:01;;;;;;;36.92;4.53;;;12.20;99.90;;;;;;5149104;27;20086;-47
2023/12/24 05:15:27;;;;;;;15.05;3.20;;;12.20;99.90;;;;;;5149283;27;20048;-48
2023/12/24 05:17:52;;;;;;;33.25;4.45;;;12.20;99.90;;;;;;5149062;27;20188;-48
2023/12/24 05:20:18;;;;;;;27.25;4.70;;;12.20;99.90;;;;;;5149082;27;20035;-50
2023/12/24 05:22:45;;;;;;;29.45;5.00;;;12.20;99.90;;;;;;5149031;27;20285;-50
2023/12/24 05:25:10;;;;;;;24.70;3.80;;;12.20;99.90;;;;;;5148892;27;20027;-49
2023/12/24 05:27:38;;;;;;;28.33;5.82;;;12.20;99.90;;;;;;5130728;27;20038;-49
2023/12/24 05:30:05;;;;;;;25.98;4.03;;;12.20;99.90;;;;;;5148869;27;20046;-50
2023/12/24 05:32:31;;;;;;;29.70;4.40;;;12.20;99.90;;;;;;5147811;27;20217;-49
2023/12/24 05:34:56;;;;;;;13.27;2.75;;;12.20;99.90;;;;;;5148846;27;20037;-50
2023/12/24 05:37:22;;;;;;;29.17;4.40;;;12.20;99.90;;;;;;5148787;27;20034;-49
2023/12/24 05:39:48;;;;;;;20.13;3.92;;;12.20;99.90;;;;;;5148566;27;20057;-50
2023/12/24 05:42:14;;;;;;;21.95;4.38;;;12.20;99.90;;;;;;5148639;27;20035;-50
2023/12/24 05:44:39;;;;;;;34.88;5.63;;;12.20;99.90;;;;;;5147588;27;20039;-50
2023/12/24 05:47:05;;;;;;;30.45;4.30;;;12.20;99.90;;;;;;5148519;27;20337;-48
2023/12/24 05:49:31;;;;;;;31.42;4.50;;;12.20;99.90;;;;;;5148297;27;20358;-48
2023/12/24 05:51:56;;;;;;;33.15;4.60;;;12.20;99.90;;;;;;5148479;27;20268;-49
2023/12/24 05:54:22;;;;;;;26.23;5.10;;;12.20;99.90;;;;;;5147454;27;20313;-50
2023/12/24 05:56:48;;;;;;;36.40;4.57;;;12.20;99.90;;;;;;5148206;27;20269;-50
2023/12/24 05:59:13;;;;;;;33.63;4.15;;;12.20;99.90;;;;;;5146934;27;20034;-50
2023/12/24 06:01:40;;;;;;;35.33;6.13;;;12.20;99.90;;;;;;5147125;27;20027;-50
2023/12/24 06:04:06;;;;;;;40.58;5.53;;;12.20;99.90;;;;;;5148083;27;20034;-50
2023/12/24 06:06:31;;;;;;;18.58;3.80;;;12.20;99.90;;;;;;5148137;27;20030;-49
2023/12/24 06:08:57;;;;;;;21.42;4.25;;;12.20;99.90;;;;;;5147666;27;20067;-48
2023/12/24 06:11:23;;;;;;;23.15;4.63;;;12.20;99.90;;;;;;5148019;27;20076;-47
2023/12/24 06:13:48;;;;;;;36.13;5.18;;;12.20;99.90;;;;;;5147836;27;20026;-47
2023/12/24 06:16:14;;;;;;;28.60;4.35;;;12.20;99.90;;;;;;5147529;27;20046;-48
2023/12/24 06:18:40;;;;;;;25.75;4.30;;;12.20;99.90;;;;;;5147432;27;20334;-50
2023/12/24 06:21:08;;;;;;;24.27;4.32;;;12.20;99.90;;;;;;5147804;27;20049;-49
2023/12/24 06:23:34;;;;;;;36.67;5.57;;;12.20;99.90;;;;;;5147946;27;20268;-50
2023/12/24 06:26:00;;;;;;;16.25;3.83;;;12.20;99.90;;;;;;5147611;27;20043;-50
2023/12/24 06:28:26;;;;;;;25.75;4.38;;;12.20;99.90;;;;;;5147643;27;20023;-49
2023/12/24 06:30:51;;;;;;;30.42;5.57;;;12.20;99.90;;;;;;5147540;27;20284;-50
2023/12/24 06:33:17;;;;;;;32.28;5.50;;;12.30;99.90;;;;;;5146637;27;20034;-51
2023/12/24 06:35:43;;;;;;;20.52;3.58;;;12.30;99.90;;;;;;5147688;27;20184;-52
2023/12/24 06:38:09;;;;;;;20.08;4.03;;;12.30;99.90;;;;;;5147738;27;20269;-51
2023/12/24 06:40:34;;;;;;;30.27;6.07;;;12.30;99.90;;;;;;5147477;27;20054;-51
2023/12/24 06:43:00;;;;;;;47.92;6.20;;;12.30;99.90;;;;;;5147086;27;20102;-51
2023/12/24 06:45:26;;;;;;;30.20;6.22;;;12.30;99.90;;;;;;5146358;27;20045;-50
2023/12/24 06:47:52;;;;;;;28.77;6.45;;;12.30;99.90;;;;;;5147326;27;20030;-49
2023/12/24 06:50:19;;;;;;;24.17;5.68;;;12.30;99.90;;;;;;5147316;27;20181;-50
2023/12/24 06:52:45;;;;;;;20.25;3.45;;;12.30;99.90;;;;;;5147302;27;20046;-50
2023/12/24 06:55:12;;;;;;;30.50;4.90;;;12.40;99.90;;;;;;5146934;27;20277;-49
2023/12/24 06:57:37;;;;;;;27.98;4.15;;;12.30;99.90;;;;;;5145211;27;20022;-49
2023/12/24 07:00:05;;;;;;;23.63;4.63;;;12.40;99.90;;;;;;5147301;27;20037;-48
2023/12/24 07:02:31;;;;;;;18.20;3.95;;;12.30;99.90;;;;;;5146536;27;20031;-50
2023/12/24 07:04:57;;;;;;;24.35;3.65;;;12.30;99.90;;;;;;5147079;27;20051;-48
2023/12/24 07:07:22;;;;;;;21.17;3.90;;;12.30;99.90;;;;;;5146983;27;20265;-49
2023/12/24 07:09:48;;;;;;;20.48;3.75;;;12.30;99.90;;;;;;5146870;27;20051;-49
2023/12/24 07:12:14;;;;;;;29.67;4.93;;;12.30;99.90;;;;;;5145982;27;20049;-48
2023/12/24 07:14:39;;;;;;;19.10;3.35;;;12.30;99.90;;;;;;5146714;27;20085;-49
2023/12/24 07:17:05;;;;;;;22.60;4.45;;;12.30;99.90;;;;;;5145892;27;20035;-46
2023/12/24 07:19:32;;;;;;;28.17;4.18;;;12.30;99.90;;;;;;5146703;27;20023;-51
2023/12/24 07:21:58;;;;;;;30.75;4.25;;;12.30;99.90;;;;;;5146952;27;20277;-50
2023/12/24 07:24:23;;;;;;;24.75;3.67;;;12.30;99.90;;;;;;5147500;27;20054;-51
2023/12/24 07:26:49;;;;;;;28.00;4.72;;;12.40;99.90;;;;;;5146460;27;20030;-52
2023/12/24 07:29:15;;;;;;;27.75;4.00;;;12.30;99.90;;;;;;5146787;28;20051;-50
2023/12/24 07:31:40;;;;;;;23.38;3.47;;;12.30;99.90;;;;;;5146668;28;20035;-49
2023/12/24 07:34:06;;;;;;;24.52;4.28;;;12.30;99.90;;;;;;5146271;28;20042;-49
2023/12/24 07:36:32;;;;;;;33.15;4.25;;;12.30;99.90;;;;;;5146821;28;20030;-52
2023/12/24 07:38:58;;;;;;;26.88;4.85;;;12.30;99.90;;;;;;5128413;28;20046;-51
2023/12/24 07:41:26;;;;;;;17.67;3.40;;;12.30;99.90;;;;;;5145607;28;20046;-50
2023/12/24 07:43:52;;;;;;;19.60;4.05;;;12.30;99.90;;;;;;5145460;28;20072;-50
2023/12/24 07:46:18;;;;;;;22.42;4.28;;;12.30;99.90;;;;;;5145534;28;20023;-50
2023/12/24 07:48:43;;;;;;;31.88;5.15;;;12.30;99.90;;;;;;5146553;28;20291;-50
2023/12/24 07:51:09;;;;;;;31.85;5.63;;;12.30;99.90;;;;;;5145308;28;20027;-51
2023/12/24 07:53:35;;;;;;;20.13;4.15;;;12.30;99.90;;;;;;5146330;28;20027;-49
2023/12/24 07:56:00;;;;;;;28.88;5.25;;;12.30;99.90;;;;;;5146322;28;20078;-46
2023/12/24 07:58:26;;;;;;;29.20;4.93;;;12.30;99.90;;;;;;5146507;28;20031;-46
2023/12/24 08:00:52;;;;;;;27.98;5.18;;;12.40;99.90;;;;;;5145445;28;20035;-49
2023/12/24 08:03:17;;;;;;;21.27;4.05;;;12.40;99.90;;;;;;5146539;28;20124;-50
2023/12/24 08:05:43;;;;;;;26.33;4.28;;;12.30;99.90;;;;;;5145057;28;20057;-49
2023/12/24 08:08:09;;;;;;;20.35;3.35;;;12.40;99.90;;;;;;5147407;27;20047;-50
2023/12/24 08:10:34;;;;;;;14.48;2.92;;;12.30;99.90;;;;;;5150401;27;20087;-50
2023/12/24 08:13:00;;;;;;;27.52;5.60;;;12.40;99.90;;;;;;5149416;27;20227;-50
2023/12/24 08:15:26;;;;;;;29.95;5.07;;;12.40;99.90;;;;;;5150284;27;20056;-50
2023/12/24 08:17:52;;;;;;;26.55;4.28;;;12.40;99.90;;;;;;5150150;27;20023;-51
2023/12/24 08:20:21;;;;;;;20.40;3.60;;;12.40;99.90;;;;;;5150282;27;20027;-50
2023/12/24 08:22:46;;;;;;;23.25;4.15;;;12.40;99.90;;;;;;5149781;27;20035;-50
2023/12/24 08:25:12;;;;;;;27.50;3.88;;;12.40;99.90;;;;;;5150183;27;20240;-51
2023/12/24 08:27:38;;;;;;;18.02;2.90;;;12.40;99.90;;;;;;5149936;27;20045;-50
2023/12/24 08:30:04;;;;;;;21.63;3.95;;;12.40;99.90;;;;;;5149012;27;20051;-48
2023/12/24 08:32:30;;;;;;;15.23;3.03;;;12.40;99.90;;;;;;5148893;27;20030;-47
2023/12/24 08:34:56;;;;;;;32.13;4.45;;;12.40;99.90;;;;;;5148698;27;20116;-48
2023/12/24 08:37:21;;;;;;;19.48;4.40;;;12.40;99.90;;;;;;5149376;27;20023;-48
2023/12/24 08:39:47;;;;;;;22.10;3.72;;;12.50;99.90;;;;;;5149618;27;20266;-51
2023/12/24 08:42:13;;;;;;;8.68;2.63;;;12.40;99.90;;;;;;5149820;27;20208;-51
2023/12/24 08:44:38;;;;;;;24.73;4.22;;;12.40;99.90;;;;;;5149701;27;20035;-51
2023/12/24 08:47:04;;;;;;;23.45;4.25;;;12.40;99.90;;;;;;5148749;27;20034;-50
2023/12/24 08:49:30;;;;;;;29.38;3.97;;;12.40;99.90;;;;;;5149436;27;20031;-51
2023/12/24 08:51:55;;;;;;;21.98;4.53;;;12.40;99.90;;;;;;5149615;27;20019;-47
2023/12/24 08:54:23;;;;;;;21.15;4.07;;;12.40;99.90;;;;;;5149397;27;20315;-48
2023/12/24 08:56:49;;;;;;;23.83;4.32;;;12.40;99.90;;;;;;5149043;27;20086;-50
2023/12/24 08:59:15;;;;;;;16.77;3.38;;;12.40;99.90;;;;;;5148213;27;20031;-48
2023/12/24 09:01:41;;;;;;;21.98;5.03;;;12.40;99.90;;;;;;5149130;27;20026;-48
2023/12/24 09:04:06;;;;;;;21.95;4.10;;;12.40;99.90;;;;;;5149115;27;20043;-48
2023/12/24 09:06:32;;;;;;;21.95;3.55;;;12.40;99.90;;;;;;5148139;27;20027;-48
2023/12/24 09:08:58;;;;;;;23.75;3.30;;;12.40;99.90;;;;;;5148642;27;20047;-47
2023/12/24 09:11:23;;;;;;;30.13;3.88;;;12.40;99.90;;;;;;5148753;27;20034;-48
2023/12/24 09:13:49;;;;;;;23.95;3.55;;;12.40;99.90;;;;;;5148997;27;20038;-47
2023/12/24 09:16:15;;;;;;;25.60;4.00;;;12.40;99.90;;;;;;5149145;27;20019;-48
2023/12/24 09:18:40;;;;;;;24.80;3.58;;;12.40;99.90;;;;;;5148973;27;20035;-47
2023/12/24 09:21:06;;;;;;;13.55;2.53;;;12.40;99.90;;;;;;5148092;27;20019;-47
2023/12/24 09:23:31;;;;;;;31.75;4.60;;;12.40;99.90;;;;;;5148772;27;20276;-47
2023/12/24 09:25:57;;;;;;;22.45;3.75;;;12.40;99.90;;;;;;5148729;27;20038;-47
2023/12/24 09:28:23;;;;;;;26.65;4.47;;;12.40;99.90;;;;;;5147827;27;20226;-47
2023/12/24 09:30:49;;;;;;;18.45;3.17;;;12.40;99.90;;;;;;5148710;27;20041;-48
2023/12/24 09:33:14;;;;;;;29.50;4.10;;;12.40;99.90;;;;;;5147800;27;20192;-49
2023/12/24 09:35:43;;;;;;;22.08;4.30;;;12.40;99.90;;;;;;5147552;27;20035;-47
2023/12/24 09:38:10;;;;;;;22.80;4.07;;;12.40;99.90;;;;;;5148709;27;20046;-48
2023/12/24 09:40:35;;;;;;;19.92;4.35;;;12.40;99.90;;;;;;5148487;27;20026;-48
2023/12/24 09:43:01;;;;;;;27.48;4.72;;;12.40;99.90;;;;;;5148329;27;20090;-47
2023/12/24 09:45:27;;;;;;;33.75;4.75;;;12.40;99.90;;;;;;5147280;27;20030;-47
2023/12/24 09:47:52;;;;;;;21.23;3.38;;;12.40;99.90;;;;;;5147480;27;20064;-47
2023/12/24 09:50:18;;;;;;;28.27;4.03;;;12.40;99.90;;;;;;5148471;27;20019;-47
2023/12/24 09:52:45;;;;;;;24.63;4.40;;;12.40;99.90;;;;;;5148470;27;20061;-47
2023/12/24 09:55:10;;;;;;;25.85;4.93;;;12.40;99.90;;;;;;5147252;27;20037;-48
2023/12/24 09:57:36;;;;;;;22.52;3.88;;;12.40;99.90;;;;;;5147037;27;20059;-48
2023/12/24 10:00:04;;;;;;;21.10;4.03;;;12.40;99.90;;;;;;5147013;27;20118;-47
2023/12/24 10:02:29;;;;;;;21.48;3.88;;;12.40;99.90;;;;;;5148112;27;20304;-47
2023/12/24 10:04:55;;;;;;;30.13;5.35;;;12.40;99.90;;;;;;5146802;27;20098;-48
2023/12/24 10:07:21;;;;;;;29.83;4.28;;;12.40;99.90;;;;;;5148015;27;20269;-47
2023/12/24 10:09:50;;;;;;;21.70;3.17;;;12.40;99.90;;;;;;5147802;27;20386;-47
2023/12/24 10:12:16;;;;;;;23.00;3.90;;;12.40;99.90;;;;;;5148019;27;20035;-47
2023/12/24 10:14:48;;;;;;;25.70;4.22;;;12.40;99.90;;;;;;5147388;27;20156;-47
2023/12/24 10:17:14;;;;;;;32.65;4.40;;;12.40;99.90;;;;;;5146837;27;20046;-48
2023/12/24 10:19:39;;;;;;;20.67;3.67;;;12.40;99.90;;;;;;5147683;27;20038;-47
2023/12/24 10:22:06;;;;;;;23.77;3.92;;;12.40;99.90;;;;;;5146763;27;20027;-48
2023/12/24 10:24:37;;;;;;;32.05;4.07;;;12.50;99.90;;;;;;5147660;27;20238;-47
2023/12/24 10:27:08;;;;;;;25.00;4.63;;;12.50;99.90;;;;;;5147462;27;20059;-48
2023/12/24 10:29:34;;;;;;;26.25;3.70;;;12.50;99.90;;;;;;5147273;27;20029;-48
2023/12/24 10:32:00;;;;;;;18.70;3.63;;;12.50;99.90;;;;;;5146131;27;20031;-47
2023/12/24 10:34:26;;;;;;;25.23;3.72;;;12.50;99.90;;;;;;5147484;27;20098;-48
2023/12/24 10:36:51;;;;;;;20.90;4.15;;;12.50;99.90;;;;;;5146200;27;20031;-50
2023/12/24 10:39:24;;;;;;;23.98;4.32;;;12.60;99.90;;;;;;5147370;27;20030;-49
2023/12/24 10:41:50;;;;;;;23.15;3.63;;;12.60;99.90;;;;;;5146102;27;20068;-51
2023/12/24 10:44:16;;;;;;;29.58;8.73;;;12.60;99.90;;;;;;5146774;27;20242;-48
2023/12/24 10:46:42;;;;;;;21.33;4.35;;;12.60;99.90;;;;;;5146725;27;20031;-49
2023/12/24 10:49:07;;;;;;;26.45;5.18;;;12.60;99.90;;;;;;5146870;27;20018;-49
2023/12/24 10:51:33;;;;;;;20.90;4.30;;;12.60;99.90;;;;;;5146973;27;20050;-50
2023/12/24 10:53:59;;;;;;;52.97;20.08;;;12.60;99.90;;;;;;5146958;27;20079;-50
2023/12/24 10:56:33;;;;;;;28.80;7.35;;;12.60;99.90;;;;;;5147130;27;20029;-50
2023/12/24 10:59:15;;;;;;;24.10;5.07;;;12.60;99.90;;;;;;5128453;27;20042;-50
2023/12/24 11:01:41;;;;;;;16.10;4.22;;;12.60;99.90;;;;;;5145864;27;20102;-50
2023/12/24 11:04:07;;;;;;;26.48;7.18;;;12.60;99.90;;;;;;5128303;27;20289;-50
2023/12/24 11:06:36;;;;;;;43.20;18.33;;;12.60;99.90;;;;;;5145851;27;20031;-50
2023/12/24 11:09:14;;;;;;;29.25;4.68;;;12.60;99.90;;;;;;5146559;27;20047;-50
2023/12/24 11:12:00;;;;;;;17.73;4.45;;;12.60;99.90;;;;;;5146891;27;20065;-51
2023/12/24 11:14:36;;;;;;;23.73;4.13;;;12.60;99.90;;;;;;5146623;27;20051;-51
2023/12/24 11:17:02;;;;;;;18.42;4.03;;;12.50;99.90;;;;;;5146431;27;20038;-51
2023/12/24 11:19:28;;;;;;;31.58;6.32;;;12.50;99.90;;;;;;5146307;27;20087;-51
2023/12/24 11:22:10;;;;;;;27.65;6.13;;;12.50;99.90;;;;;;5146488;27;20255;-51
2023/12/24 11:24:44;;;;;;;20.77;6.35;;;12.50;99.90;;;;;;5145425;27;20084;-51
2023/12/24 11:27:09;;;;;;;30.30;6.82;;;12.50;99.90;;;;;;5145475;27;20229;-50
2023/12/24 11:29:48;;;;;;;26.35;5.85;;;12.50;99.90;;;;;;5145450;27;20019;-50
2023/12/24 11:32:26;;;;;;;29.00;4.85;;;12.50;99.90;;;;;;5145440;28;20031;-50
2023/12/24 11:34:57;;;;;;;24.00;4.45;;;12.60;99.90;;;;;;5146349;28;20126;-50
2023/12/24 11:37:33;;;;;;;38.13;7.00;;;12.60;99.90;;;;;;5146307;28;20196;-50
2023/12/24 11:40:12;;;;;;;22.67;4.95;;;12.60;99.90;;;;;;5145605;28;20020;-50
2023/12/24 11:42:45;;;;;;;23.77;4.95;;;12.70;99.90;;;;;;5146060;27;20046;-51
2023/12/24 11:45:29;;;;;;;26.65;5.97;;;12.60;99.90;;;;;;5150905;27;20030;-50
2023/12/24 11:47:55;;;;;;;19.92;5.90;;;12.70;99.90;;;;;;5149658;27;20059;-52
2023/12/24 11:50:21;;;;;;;17.20;3.70;;;12.70;99.90;;;;;;5150310;27;20068;-48
2023/12/24 11:52:48;;;;;;;18.88;4.32;;;12.70;99.90;;;;;;5150276;27;20023;-50
2023/12/24 11:55:20;;;;;;;23.02;4.88;;;12.70;99.90;;;;;;5150547;27;20289;-49
2023/12/24 11:57:46;;;;;;;29.98;5.43;;;12.70;99.90;;;;;;5132398;27;20072;-48
2023/12/24 12:00:16;;;;;;;24.20;3.83;;;12.70;99.90;;;;;;5149409;27;20310;-51
2023/12/24 12:02:42;;;;;;;;;;;12.70;99.90;;;;;;5150972;27;20026;-48
2023/12/24 12:05:09;;;;;;;28.02;4.47;;;12.70;99.90;;;;;;5149982;27;19991;-49
2023/12/24 12:07:35;;;;;;;25.77;4.68;;;12.70;99.90;;;;;;5150481;27;20027;-48
2023/12/24 12:10:02;;;;;;;26.98;5.03;;;12.70;99.90;;;;;;5150169;27;20064;-49
2023/12/24 12:12:28;;;;;;;32.75;7.78;;;12.80;99.90;;;;;;5149982;27;20049;-49
2023/12/24 12:14:53;;;;;;;60.63;26.45;;;12.80;99.90;;;;;;5149938;27;20178;-49
2023/12/24 12:17:19;;;;;;;98.32;48.95;;;12.80;99.90;;;;;;5149971;27;20027;-49
2023/12/24 12:19:45;;;;;;;37.90;16.83;;;12.80;99.90;;;;;;5149387;27;20099;-51
2023/12/24 12:22:11;;;;;;;33.80;10.77;;;12.80;99.90;;;;;;5149826;27;20162;-49
2023/12/24 12:24:36;;;;;;;30.10;4.72;;;12.80;99.90;;;;;;5149894;27;20061;-52
2023/12/24 12:27:02;;;;;;;23.27;5.85;;;12.80;99.90;;;;;;5149079;27;20031;-49
2023/12/24 12:29:28;;;;;;;18.75;3.75;;;12.80;99.90;;;;;;5149572;27;20031;-51
2023/12/24 12:31:57;;;;;;;22.35;7.10;;;12.80;99.90;;;;;;5148898;27;20042;-49
2023/12/24 12:34:23;;;;;;;26.77;5.17;;;12.80;99.90;;;;;;5149833;27;20026;-49